sensor_id;sensor_type;location;lat;lon;timestamp;temperature;humidity
8408;DHT22;4241;48.452;9.216;2024-02-15T00:02:07;10.20;99.90
8408;DHT22;4241;48.452;9.216;2024-02-15T00:04:34;10.10;99.90
8408;DHT22;4241;48.452;9.216;2024-02-15T00:07:04;10.00;99.90
8408;DHT22;4241;48.452;9.216;2024-02-15T00:09:31;10.00;99.90
8408;DHT22;4241;48.452;9.216;2024-02-15T00:11:58;9.90;99.90
8408;DHT22;4241;48.452;9.216;2024-02-15T00:14:25;9.90;99.90
8408;DHT22;4241;48.452;9.216;2024-02-15T00:16:52;9.90;99.90
8408;DHT22;4241;48.452;9.216;2024-02-15T00:19:18;9.90;99.90
8408;DHT22;4241;48.452;9.216;2024-02-15T00:21:47;9.90;99.90
8408;DHT22;4241;48.452;9.216;2024-02-15T00:24:15;9.90;99.90
8408;DHT22;4241;48.452;9.216;2024-02-15T00:26:42;10.10;99.90
8408;DHT22;4241;48.452;9.216;2024-02-15T00:29:09;10.00;99.90
8408;DHT22;4241;48.452;9.216;2024-02-15T00:31:36;10.00;99.90
8408;DHT22;4241;48.452;9.216;2024-02-15T00:34:03;9.90;99.90
8408;DHT22;4241;48.452;9.216;2024-02-15T00:38:58;9.90;99.90
8408;DHT22;4241;48.452;9.216;2024-02-15T00:41:27;9.90;99.90
8408;DHT22;4241;48.452;9.216;2024-02-15T00:43:53;9.90;99.90
8408;DHT22;4241;48.452;9.216;2024-02-15T00:48:47;9.80;99.90
8408;DHT22;4241;48.452;9.216;2024-02-15T00:51:14;9.80;99.90
8408;DHT22;4241;48.452;9.216;2024-02-15T00:53:41;9.80;99.90
8408;DHT22;4241;48.452;9.216;2024-02-15T00:56:08;9.90;99.90
8408;DHT22;4241;48.452;9.216;2024-02-15T00:58:36;9.90;99.90
8408;DHT22;4241;48.452;9.216;2024-02-15T01:03:30;9.80;99.90
8408;DHT22;4241;48.452;9.216;2024-02-15T01:05:57;9.90;99.90
8408;DHT22;4241;48.452;9.216;2024-02-15T01:08:24;9.90;99.90
8408;DHT22;4241;48.452;9.216;2024-02-15T01:10:50;9.90;99.90
8408;DHT22;4241;48.452;9.216;2024-02-15T01:13:19;9.90;99.90
8408;DHT22;4241;48.452;9.216;2024-02-15T01:15:47;9.90;99.90
8408;DHT22;4241;48.452;9.216;2024-02-15T01:18:14;9.90;99.90
8408;DHT22;4241;48.452;9.216;2024-02-15T01:20:41;9.80;99.90
8408;DHT22;4241;48.452;9.216;2024-02-15T01:23:07;9.80;99.90
8408;DHT22;4241;48.452;9.216;2024-02-15T01:25:34;9.70;99.90
8408;DHT22;4241;48.452;9.216;2024-02-15T01:28:01;9.50;99.90
8408;DHT22;4241;48.452;9.216;2024-02-15T01:30:28;9.60;99.90
8408;DHT22;4241;48.452;9.216;2024-02-15T01:35:27;9.30;99.90
8408;DHT22;4241;48.452;9.216;2024-02-15T01:37:53;9.30;99.90
8408;DHT22;4241;48.452;9.216;2024-02-15T01:40:20;9.30;99.90
8408;DHT22;4241;48.452;9.216;2024-02-15T01:42:47;9.20;99.90
8408;DHT22;4241;48.452;9.216;2024-02-15T01:45:15;9.10;99.90
8408;DHT22;4241;48.452;9.216;2024-02-15T01:47:42;9.20;99.90
8408;DHT22;4241;48.452;9.216;2024-02-15T01:50:11;9.00;99.90
8408;DHT22;4241;48.452;9.216;2024-02-15T01:52:40;9.10;99.90
8408;DHT22;4241;48.452;9.216;2024-02-15T01:55:13;9.10;99.90
8408;DHT22;4241;48.452;9.216;2024-02-15T01:57:43;9.00;99.90
8408;DHT22;4241;48.452;9.216;2024-02-15T02:00:11;8.90;99.90
8408;DHT22;4241;48.452;9.216;2024-02-15T02:02:41;8.90;99.90
8408;DHT22;4241;48.452;9.216;2024-02-15T02:05:08;8.90;99.90
8408;DHT22;4241;48.452;9.216;2024-02-15T02:07:37;8.90;99.90
8408;DHT22;4241;48.452;9.216;2024-02-15T02:10:05;8.90;99.90
8408;DHT22;4241;48.452;9.216;2024-02-15T02:12:32;8.90;99.90
8408;DHT22;4241;48.452;9.216;2024-02-15T02:14:59;8.80;99.90
8408;DHT22;4241;48.452;9.216;2024-02-15T02:17:26;8.90;99.90
8408;DHT22;4241;48.452;9.216;2024-02-15T02:19:52;8.90;99.90
8408;DHT22;4241;48.452;9.216;2024-02-15T02:22:20;8.80;99.90
8408;DHT22;4241;48.452;9.216;2024-02-15T02:24:58;8.80;99.90
8408;DHT22;4241;48.452;9.216;2024-02-15T02:27:27;8.60;99.90
8408;DHT22;4241;48.452;9.216;2024-02-15T02:29:53;8.50;99.90
8408;DHT22;4241;48.452;9.216;2024-02-15T02:32:21;8.40;99.90
8408;DHT22;4241;48.452;9.216;2024-02-15T02:34:48;8.30;99.90
8408;DHT22;4241;48.452;9.216;2024-02-15T02:37:15;8.30;99.90
8408;DHT22;4241;48.452;9.216;2024-02-15T02:39:42;8.30;99.90
8408;DHT22;4241;48.452;9.216;2024-02-15T02:42:11;8.20;99.90
8408;DHT22;4241;48.452;9.216;2024-02-15T02:44:38;8.50;99.90
8408;DHT22;4241;48.452;9.216;2024-02-15T02:47:05;8.10;99.90
8408;DHT22;4241;48.452;9.216;2024-02-15T02:49:32;8.10;99.90
8408;DHT22;4241;48.452;9.216;2024-02-15T02:51:59;8.10;99.90
8408;DHT22;4241;48.452;9.216;2024-02-15T02:54:26;8.10;99.90
8408;DHT22;4241;48.452;9.216;2024-02-15T02:56:54;8.10;99.90
8408;DHT22;4241;48.452;9.216;2024-02-15T02:59:23;8.10;99.90
8408;DHT22;4241;48.452;9.216;2024-02-15T03:01:50;8.10;99.90
8408;DHT22;4241;48.452;9.216;2024-02-15T03:04:18;8.10;99.90
8408;DHT22;4241;48.452;9.216;2024-02-15T03:06:45;8.10;99.90
8408;DHT22;4241;48.452;9.216;2024-02-15T03:09:13;8.00;99.90
8408;DHT22;4241;48.452;9.216;2024-02-15T03:11:40;7.90;99.90
8408;DHT22;4241;48.452;9.216;2024-02-15T03:14:06;8.00;99.90
8408;DHT22;4241;48.452;9.216;2024-02-15T03:16:35;8.10;99.90
8408;DHT22;4241;48.452;9.216;2024-02-15T03:19:01;8.20;99.90
8408;DHT22;4241;48.452;9.216;2024-02-15T03:21:29;7.90;99.90
8408;DHT22;4241;48.452;9.216;2024-02-15T03:23:56;7.90;99.90
8408;DHT22;4241;48.452;9.216;2024-02-15T03:26:29;7.80;99.90
8408;DHT22;4241;48.452;9.216;2024-02-15T03:29:02;7.70;99.90
8408;DHT22;4241;48.452;9.216;2024-02-15T03:31:29;7.80;99.90
8408;DHT22;4241;48.452;9.216;2024-02-15T03:33:57;7.80;99.90
8408;DHT22;4241;48.452;9.216;2024-02-15T03:36:25;7.80;99.90
8408;DHT22;4241;48.452;9.216;2024-02-15T03:38:52;7.80;99.90
8408;DHT22;4241;48.452;9.216;2024-02-15T03:41:19;7.70;99.90
8408;DHT22;4241;48.452;9.216;2024-02-15T03:43:46;7.80;99.90
8408;DHT22;4241;48.452;9.216;2024-02-15T03:46:13;7.70;99.90
8408;DHT22;4241;48.452;9.216;2024-02-15T03:48:42;7.60;99.90
8408;DHT22;4241;48.452;9.216;2024-02-15T03:51:16;7.60;99.90
8408;DHT22;4241;48.452;9.216;2024-02-15T03:53:44;7.60;99.90
8408;DHT22;4241;48.452;9.216;2024-02-15T03:56:10;7.60;99.90
8408;DHT22;4241;48.452;9.216;2024-02-15T03:58:38;7.50;99.90
8408;DHT22;4241;48.452;9.216;2024-02-15T04:01:05;7.50;99.90
8408;DHT22;4241;48.452;9.216;2024-02-15T04:03:35;7.60;99.90
8408;DHT22;4241;48.452;9.216;2024-02-15T04:06:02;7.50;99.90
8408;DHT22;4241;48.452;9.216;2024-02-15T04:08:31;7.50;99.90
8408;DHT22;4241;48.452;9.216;2024-02-15T04:10:58;7.40;99.90
8408;DHT22;4241;48.452;9.216;2024-02-15T04:13:25;7.50;99.90
8408;DHT22;4241;48.452;9.216;2024-02-15T04:15:52;7.50;99.90
8408;DHT22;4241;48.452;9.216;2024-02-15T04:18:19;7.50;99.90
8408;DHT22;4241;48.452;9.216;2024-02-15T04:20:46;7.50;99.90
8408;DHT22;4241;48.452;9.216;2024-02-15T04:23:14;7.50;99.90
8408;DHT22;4241;48.452;9.216;2024-02-15T04:25:42;7.50;99.90
8408;DHT22;4241;48.452;9.216;2024-02-15T04:28:16;7.60;99.90
8408;DHT22;4241;48.452;9.216;2024-02-15T04:30:43;7.60;99.90
8408;DHT22;4241;48.452;9.216;2024-02-15T04:33:10;7.60;99.90
8408;DHT22;4241;48.452;9.216;2024-02-15T04:35:38;7.60;99.90
8408;DHT22;4241;48.452;9.216;2024-02-15T04:38:04;7.70;99.90
8408;DHT22;4241;48.452;9.216;2024-02-15T04:40:34;7.70;99.90
8408;DHT22;4241;48.452;9.216;2024-02-15T04:43:02;7.90;99.90
8408;DHT22;4241;48.452;9.216;2024-02-15T04:45:29;7.80;99.90
8408;DHT22;4241;48.452;9.216;2024-02-15T04:47:57;7.90;99.90
8408;DHT22;4241;48.452;9.216;2024-02-15T04:50:27;7.90;99.90
8408;DHT22;4241;48.452;9.216;2024-02-15T04:52:54;7.90;99.90
8408;DHT22;4241;48.452;9.216;2024-02-15T04:55:22;7.90;99.90
8408;DHT22;4241;48.452;9.216;2024-02-15T04:57:49;7.90;99.90
8408;DHT22;4241;48.452;9.216;2024-02-15T05:00:22;7.90;99.90
8408;DHT22;4241;48.452;9.216;2024-02-15T05:02:51;7.80;99.90
8408;DHT22;4241;48.452;9.216;2024-02-15T05:05:18;8.00;99.90
8408;DHT22;4241;48.452;9.216;2024-02-15T05:07:45;8.00;99.90
8408;DHT22;4241;48.452;9.216;2024-02-15T05:10:14;8.10;99.90
8408;DHT22;4241;48.452;9.216;2024-02-15T05:12:41;7.90;99.90
8408;DHT22;4241;48.452;9.216;2024-02-15T05:15:09;7.90;99.90
8408;DHT22;4241;48.452;9.216;2024-02-15T05:17:38;7.90;99.90
8408;DHT22;4241;48.452;9.216;2024-02-15T05:20:07;7.90;99.90
8408;DHT22;4241;48.452;9.216;2024-02-15T05:22:37;7.90;99.90
8408;DHT22;4241;48.452;9.216;2024-02-15T05:25:05;8.00;99.90
8408;DHT22;4241;48.452;9.216;2024-02-15T05:27:33;8.00;99.90
8408;DHT22;4241;48.452;9.216;2024-02-15T05:29:59;7.90;99.90
8408;DHT22;4241;48.452;9.216;2024-02-15T05:32:26;7.90;99.90
8408;DHT22;4241;48.452;9.216;2024-02-15T05:34:54;7.90;99.90
8408;DHT22;4241;48.452;9.216;2024-02-15T05:37:21;7.90;99.90
8408;DHT22;4241;48.452;9.216;2024-02-15T05:39:48;8.10;99.90
8408;DHT22;4241;48.452;9.216;2024-02-15T05:42:19;8.50;99.90
8408;DHT22;4241;48.452;9.216;2024-02-15T05:44:46;8.20;99.90
8408;DHT22;4241;48.452;9.216;2024-02-15T05:47:13;7.90;99.90
8408;DHT22;4241;48.452;9.216;2024-02-15T05:49:40;7.90;99.90
8408;DHT22;4241;48.452;9.216;2024-02-15T05:52:08;7.80;99.90
8408;DHT22;4241;48.452;9.216;2024-02-15T05:54:35;7.80;99.90
8408;DHT22;4241;48.452;9.216;2024-02-15T05:57:01;7.70;99.90
8408;DHT22;4241;48.452;9.216;2024-02-15T05:59:28;7.80;99.90
8408;DHT22;4241;48.452;9.216;2024-02-15T06:01:55;7.80;99.90
8408;DHT22;4241;48.452;9.216;2024-02-15T06:04:22;7.70;99.90
8408;DHT22;4241;48.452;9.216;2024-02-15T06:06:50;7.70;99.90
8408;DHT22;4241;48.452;9.216;2024-02-15T06:09:20;7.80;99.90
8408;DHT22;4241;48.452;9.216;2024-02-15T06:11:50;7.80;99.90
8408;DHT22;4241;48.452;9.216;2024-02-15T06:14:20;7.70;99.90
8408;DHT22;4241;48.452;9.216;2024-02-15T06:16:47;7.70;99.90
8408;DHT22;4241;48.452;9.216;2024-02-15T06:19:14;7.70;99.90
8408;DHT22;4241;48.452;9.216;2024-02-15T06:21:41;7.60;99.90
8408;DHT22;4241;48.452;9.216;2024-02-15T06:24:09;7.60;99.90
8408;DHT22;4241;48.452;9.216;2024-02-15T06:26:37;7.60;99.90
8408;DHT22;4241;48.452;9.216;2024-02-15T06:29:04;7.60;99.90
8408;DHT22;4241;48.452;9.216;2024-02-15T06:31:48;7.50;99.90
8408;DHT22;4241;48.452;9.216;2024-02-15T06:34:32;7.60;99.90
8408;DHT22;4241;48.452;9.216;2024-02-15T06:37:34;7.60;99.90
8408;DHT22;4241;48.452;9.216;2024-02-15T06:40:19;7.60;99.90
8408;DHT22;4241;48.452;9.216;2024-02-15T06:42:47;7.60;99.90
8408;DHT22;4241;48.452;9.216;2024-02-15T06:45:14;7.50;99.90
8408;DHT22;4241;48.452;9.216;2024-02-15T06:47:42;7.70;99.90
8408;DHT22;4241;48.452;9.216;2024-02-15T06:50:10;7.50;99.90
8408;DHT22;4241;48.452;9.216;2024-02-15T06:52:37;7.50;99.90
8408;DHT22;4241;48.452;9.216;2024-02-15T06:55:06;7.50;99.90
8408;DHT22;4241;48.452;9.216;2024-02-15T07:00:04;7.40;99.90
8408;DHT22;4241;48.452;9.216;2024-02-15T07:02:33;7.60;99.90
8408;DHT22;4241;48.452;9.216;2024-02-15T07:05:00;7.40;99.90
8408;DHT22;4241;48.452;9.216;2024-02-15T07:07:28;7.50;99.90
8408;DHT22;4241;48.452;9.216;2024-02-15T07:09:55;7.50;99.90
8408;DHT22;4241;48.452;9.216;2024-02-15T07:12:22;7.80;99.90
8408;DHT22;4241;48.452;9.216;2024-02-15T07:14:49;7.50;99.90
8408;DHT22;4241;48.452;9.216;2024-02-15T07:17:18;7.60;99.90
8408;DHT22;4241;48.452;9.216;2024-02-15T07:19:45;7.50;99.90
8408;DHT22;4241;48.452;9.216;2024-02-15T07:22:14;7.80;99.90
8408;DHT22;4241;48.452;9.216;2024-02-15T07:24:42;7.80;99.90
8408;DHT22;4241;48.452;9.216;2024-02-15T07:27:09;7.70;99.90
8408;DHT22;4241;48.452;9.216;2024-02-15T07:29:37;7.90;99.90
8408;DHT22;4241;48.452;9.216;2024-02-15T07:32:04;7.80;99.90
8408;DHT22;4241;48.452;9.216;2024-02-15T07:34:33;7.80;99.90
8408;DHT22;4241;48.452;9.216;2024-02-15T07:37:01;7.80;99.90
8408;DHT22;4241;48.452;9.216;2024-02-15T07:39:28;7.80;99.90
8408;DHT22;4241;48.452;9.216;2024-02-15T07:41:55;7.80;99.90
8408;DHT22;4241;48.452;9.216;2024-02-15T07:44:23;7.90;99.90
8408;DHT22;4241;48.452;9.216;2024-02-15T07:46:51;7.90;99.90
8408;DHT22;4241;48.452;9.216;2024-02-15T07:49:17;7.90;99.90
8408;DHT22;4241;48.452;9.216;2024-02-15T07:51:46;7.90;99.90
8408;DHT22;4241;48.452;9.216;2024-02-15T07:54:18;8.00;99.90
8408;DHT22;4241;48.452;9.216;2024-02-15T07:56:46;8.00;99.90
8408;DHT22;4241;48.452;9.216;2024-02-15T07:59:14;8.10;99.90
8408;DHT22;4241;48.452;9.216;2024-02-15T08:01:42;8.20;99.90
8408;DHT22;4241;48.452;9.216;2024-02-15T08:04:09;8.40;99.90
8408;DHT22;4241;48.452;9.216;2024-02-15T08:06:35;8.40;99.90
8408;DHT22;4241;48.452;9.216;2024-02-15T08:09:05;8.50;99.90
8408;DHT22;4241;48.452;9.216;2024-02-15T08:11:32;8.60;99.90
8408;DHT22;4241;48.452;9.216;2024-02-15T08:13:59;8.70;99.90
8408;DHT22;4241;48.452;9.216;2024-02-15T08:16:26;8.70;99.90
8408;DHT22;4241;48.452;9.216;2024-02-15T08:18:54;8.90;99.90
8408;DHT22;4241;48.452;9.216;2024-02-15T08:21:25;9.00;99.90
8408;DHT22;4241;48.452;9.216;2024-02-15T08:23:53;9.00;99.90
8408;DHT22;4241;48.452;9.216;2024-02-15T08:26:22;9.10;99.90
8408;DHT22;4241;48.452;9.216;2024-02-15T08:28:49;9.10;99.90
8408;DHT22;4241;48.452;9.216;2024-02-15T08:31:16;9.20;99.90
8408;DHT22;4241;48.452;9.216;2024-02-15T08:33:44;9.70;99.90
8408;DHT22;4241;48.452;9.216;2024-02-15T08:36:11;9.60;99.90
8408;DHT22;4241;48.452;9.216;2024-02-15T08:38:39;9.50;99.90
8408;DHT22;4241;48.452;9.216;2024-02-15T08:41:07;9.70;99.90
8408;DHT22;4241;48.452;9.216;2024-02-15T08:43:38;9.90;99.90
8408;DHT22;4241;48.452;9.216;2024-02-15T08:46:06;9.90;99.90
8408;DHT22;4241;48.452;9.216;2024-02-15T08:48:34;10.00;99.90
8408;DHT22;4241;48.452;9.216;2024-02-15T08:51:01;10.20;99.90
8408;DHT22;4241;48.452;9.216;2024-02-15T08:53:28;10.30;99.90
8408;DHT22;4241;48.452;9.216;2024-02-15T08:55:54;10.50;99.90
8408;DHT22;4241;48.452;9.216;2024-02-15T08:58:21;10.50;99.90
8408;DHT22;4241;48.452;9.216;2024-02-15T09:00:49;10.70;99.90
8408;DHT22;4241;48.452;9.216;2024-02-15T09:03:16;10.70;99.90
8408;DHT22;4241;48.452;9.216;2024-02-15T09:05:44;10.90;99.90
8408;DHT22;4241;48.452;9.216;2024-02-15T09:08:11;11.00;99.90
8408;DHT22;4241;48.452;9.216;2024-02-15T09:10:37;11.10;99.90
8408;DHT22;4241;48.452;9.216;2024-02-15T09:13:07;11.20;99.90
8408;DHT22;4241;48.452;9.216;2024-02-15T09:15:34;11.30;99.90
8408;DHT22;4241;48.452;9.216;2024-02-15T09:18:03;11.50;99.90
8408;DHT22;4241;48.452;9.216;2024-02-15T09:20:30;11.60;99.90
8408;DHT22;4241;48.452;9.216;2024-02-15T09:22:58;11.70;99.90
8408;DHT22;4241;48.452;9.216;2024-02-15T09:25:30;11.80;99.90
8408;DHT22;4241;48.452;9.216;2024-02-15T09:27:57;11.80;99.90
8408;DHT22;4241;48.452;9.216;2024-02-15T09:30:23;11.90;99.90
8408;DHT22;4241;48.452;9.216;2024-02-15T09:32:53;12.00;99.90
8408;DHT22;4241;48.452;9.216;2024-02-15T09:35:22;12.20;99.90
8408;DHT22;4241;48.452;9.216;2024-02-15T09:37:49;12.40;99.90
8408;DHT22;4241;48.452;9.216;2024-02-15T09:40:17;12.50;99.90
8408;DHT22;4241;48.452;9.216;2024-02-15T09:42:46;12.50;99.90
8408;DHT22;4241;48.452;9.216;2024-02-15T09:45:14;12.70;99.90
8408;DHT22;4241;48.452;9.216;2024-02-15T09:47:42;12.80;99.90
8408;DHT22;4241;48.452;9.216;2024-02-15T09:50:10;12.90;99.90
8408;DHT22;4241;48.452;9.216;2024-02-15T09:52:49;13.00;99.90
8408;DHT22;4241;48.452;9.216;2024-02-15T09:55:16;11.10;99.90
8408;DHT22;4241;48.452;9.216;2024-02-15T09:57:44;13.20;99.90
8408;DHT22;4241;48.452;9.216;2024-02-15T10:00:12;13.20;99.90
8408;DHT22;4241;48.452;9.216;2024-02-15T10:02:40;13.30;99.90
8408;DHT22;4241;48.452;9.216;2024-02-15T10:05:08;13.40;99.90
8408;DHT22;4241;48.452;9.216;2024-02-15T10:07:37;13.60;99.90
8408;DHT22;4241;48.452;9.216;2024-02-15T10:10:16;13.70;99.90
8408;DHT22;4241;48.452;9.216;2024-02-15T10:12:44;13.80;99.90
8408;DHT22;4241;48.452;9.216;2024-02-15T10:15:27;13.90;99.90
8408;DHT22;4241;48.452;9.216;2024-02-15T10:17:55;14.00;99.90
8408;DHT22;4241;48.452;9.216;2024-02-15T10:20:22;14.10;99.90
8408;DHT22;4241;48.452;9.216;2024-02-15T10:22:52;14.30;99.90
8408;DHT22;4241;48.452;9.216;2024-02-15T10:25:21;14.40;99.90
8408;DHT22;4241;48.452;9.216;2024-02-15T10:27:49;14.40;99.90
8408;DHT22;4241;48.452;9.216;2024-02-15T10:30:17;14.60;99.90
8408;DHT22;4241;48.452;9.216;2024-02-15T10:32:45;14.70;99.90
8408;DHT22;4241;48.452;9.216;2024-02-15T10:35:19;14.70;99.90
8408;DHT22;4241;48.452;9.216;2024-02-15T10:37:48;14.70;99.90
8408;DHT22;4241;48.452;9.216;2024-02-15T10:40:18;14.70;99.90
8408;DHT22;4241;48.452;9.216;2024-02-15T10:42:47;14.80;99.90
8408;DHT22;4241;48.452;9.216;2024-02-15T10:45:15;14.90;99.90
8408;DHT22;4241;48.452;9.216;2024-02-15T10:47:44;15.00;99.90
8408;DHT22;4241;48.452;9.216;2024-02-15T10:50:13;15.00;99.90
8408;DHT22;4241;48.452;9.216;2024-02-15T10:52:48;15.20;99.90
8408;DHT22;4241;48.452;9.216;2024-02-15T10:55:21;15.40;99.90
8408;DHT22;4241;48.452;9.216;2024-02-15T10:57:51;15.60;99.90
8408;DHT22;4241;48.452;9.216;2024-02-15T11:00:21;15.70;99.90
8408;DHT22;4241;48.452;9.216;2024-02-15T11:03:00;15.80;99.90
8408;DHT22;4241;48.452;9.216;2024-02-15T11:05:32;15.80;99.90
8408;DHT22;4241;48.452;9.216;2024-02-15T11:08:00;15.90;99.90
8408;DHT22;4241;48.452;9.216;2024-02-15T11:10:30;16.10;99.90
8408;DHT22;4241;48.452;9.216;2024-02-15T11:12:59;16.10;99.90
8408;DHT22;4241;48.452;9.216;2024-02-15T11:15:40;16.10;99.90
8408;DHT22;4241;48.452;9.216;2024-02-15T11:18:10;16.00;99.90
8408;DHT22;4241;48.452;9.216;2024-02-15T11:20:47;16.20;99.90
8408;DHT22;4241;48.452;9.216;2024-02-15T11:23:25;16.30;99.90
8408;DHT22;4241;48.452;9.216;2024-02-15T11:25:53;16.40;99.90
8408;DHT22;4241;48.452;9.216;2024-02-15T11:28:47;16.60;99.90
8408;DHT22;4241;48.452;9.216;2024-02-15T11:31:53;16.60;99.90
8408;DHT22;4241;48.452;9.216;2024-02-15T11:34:42;16.60;99.90
8408;DHT22;4241;48.452;9.216;2024-02-15T11:37:16;16.80;99.90
8408;DHT22;4241;48.452;9.216;2024-02-15T11:40:04;17.10;99.90
8408;DHT22;4241;48.452;9.216;2024-02-15T11:42:36;17.20;99.90
8408;DHT22;4241;48.452;9.216;2024-02-15T11:45:05;17.40;99.60
8408;DHT22;4241;48.452;9.216;2024-02-15T11:47:37;17.40;99.00
8408;DHT22;4241;48.452;9.216;2024-02-15T11:50:07;17.70;99.80
8408;DHT22;4241;48.452;9.216;2024-02-15T11:52:34;17.90;97.50
8408;DHT22;4241;48.452;9.216;2024-02-15T11:55:07;17.90;97.60
8408;DHT22;4241;48.452;9.216;2024-02-15T11:57:36;17.70;98.10
8408;DHT22;4241;48.452;9.216;2024-02-15T12:00:21;17.70;95.30
8408;DHT22;4241;48.452;9.216;2024-02-15T12:03:05;17.60;97.90
8408;DHT22;4241;48.452;9.216;2024-02-15T12:05:50;17.60;96.30
8408;DHT22;4241;48.452;9.216;2024-02-15T12:08:34;17.60;99.90
8408;DHT22;4241;48.452;9.216;2024-02-15T12:11:19;17.60;94.70
8408;DHT22;4241;48.452;9.216;2024-02-15T12:14:03;17.40;97.90
8408;DHT22;4241;48.452;9.216;2024-02-15T12:16:59;17.40;94.90
8408;DHT22;4241;48.452;9.216;2024-02-15T12:19:43;17.50;96.10
8408;DHT22;4241;48.452;9.216;2024-02-15T12:22:10;17.50;96.20
8408;DHT22;4241;48.452;9.216;2024-02-15T12:24:36;17.50;95.80
8408;DHT22;4241;48.452;9.216;2024-02-15T12:27:03;17.60;96.00
8408;DHT22;4241;48.452;9.216;2024-02-15T12:29:31;17.60;95.60
8408;DHT22;4241;48.452;9.216;2024-02-15T12:31:59;17.50;95.10
8408;DHT22;4241;48.452;9.216;2024-02-15T12:34:26;17.50;94.50
8408;DHT22;4241;48.452;9.216;2024-02-15T12:37:06;17.60;95.50
8408;DHT22;4241;48.452;9.216;2024-02-15T12:39:34;17.50;95.30
8408;DHT22;4241;48.452;9.216;2024-02-15T12:42:02;17.40;94.90
8408;DHT22;4241;48.452;9.216;2024-02-15T12:44:29;17.40;94.10
8408;DHT22;4241;48.452;9.216;2024-02-15T12:47:00;17.30;94.20
8408;DHT22;4241;48.452;9.216;2024-02-15T12:49:29;17.40;95.10
8408;DHT22;4241;48.452;9.216;2024-02-15T12:55:13;17.50;95.40
8408;DHT22;4241;48.452;9.216;2024-02-15T12:57:41;17.40;94.60
8408;DHT22;4241;48.452;9.216;2024-02-15T13:00:11;17.40;94.30
8408;DHT22;4241;48.452;9.216;2024-02-15T13:02:44;17.50;93.50
8408;DHT22;4241;48.452;9.216;2024-02-15T13:05:12;17.40;93.40
8408;DHT22;4241;48.452;9.216;2024-02-15T13:07:39;17.30;93.70
8408;DHT22;4241;48.452;9.216;2024-02-15T13:10:07;17.40;95.90
8408;DHT22;4241;48.452;9.216;2024-02-15T13:12:35;17.40;93.60
8408;DHT22;4241;48.452;9.216;2024-02-15T13:15:03;17.30;92.60
8408;DHT22;4241;48.452;9.216;2024-02-15T13:17:32;17.30;92.30
8408;DHT22;4241;48.452;9.216;2024-02-15T13:20:01;17.30;93.00
8408;DHT22;4241;48.452;9.216;2024-02-15T13:25:05;17.30;92.80
8408;DHT22;4241;48.452;9.216;2024-02-15T13:27:33;17.30;93.60
8408;DHT22;4241;48.452;9.216;2024-02-15T13:30:00;17.20;93.10
8408;DHT22;4241;48.452;9.216;2024-02-15T13:32:26;17.30;93.60
8408;DHT22;4241;48.452;9.216;2024-02-15T13:34:54;17.30;94.10
8408;DHT22;4241;48.452;9.216;2024-02-15T13:37:23;17.30;92.10
8408;DHT22;4241;48.452;9.216;2024-02-15T13:39:50;17.40;93.70
8408;DHT22;4241;48.452;9.216;2024-02-15T13:42:17;17.30;93.20
8408;DHT22;4241;48.452;9.216;2024-02-15T13:44:44;17.30;93.50
8408;DHT22;4241;48.452;9.216;2024-02-15T13:47:12;17.30;93.60
8408;DHT22;4241;48.452;9.216;2024-02-15T13:49:42;17.30;93.20
8408;DHT22;4241;48.452;9.216;2024-02-15T13:52:09;17.40;94.60
8408;DHT22;4241;48.452;9.216;2024-02-15T13:54:37;17.40;94.10
8408;DHT22;4241;48.452;9.216;2024-02-15T13:57:04;17.40;93.70
8408;DHT22;4241;48.452;9.216;2024-02-15T13:59:32;17.30;92.80
8408;DHT22;4241;48.452;9.216;2024-02-15T14:02:00;17.30;92.80
8408;DHT22;4241;48.452;9.216;2024-02-15T14:04:29;17.30;94.20
8408;DHT22;4241;48.452;9.216;2024-02-15T14:06:57;17.30;93.80
8408;DHT22;4241;48.452;9.216;2024-02-15T14:09:25;17.30;94.70
8408;DHT22;4241;48.452;9.216;2024-02-15T14:11:54;17.30;93.90
8408;DHT22;4241;48.452;9.216;2024-02-15T14:14:21;17.30;96.10
8408;DHT22;4241;48.452;9.216;2024-02-15T14:16:47;17.30;97.30
8408;DHT22;4241;48.452;9.216;2024-02-15T14:19:14;17.30;97.70
8408;DHT22;4241;48.452;9.216;2024-02-15T14:21:41;17.30;97.80
8408;DHT22;4241;48.452;9.216;2024-02-15T14:24:10;17.30;97.10
8408;DHT22;4241;48.452;9.216;2024-02-15T14:26:37;17.30;97.00
8408;DHT22;4241;48.452;9.216;2024-02-15T14:29:05;17.30;97.30
8408;DHT22;4241;48.452;9.216;2024-02-15T14:31:32;17.30;96.70
8408;DHT22;4241;48.452;9.216;2024-02-15T14:34:16;17.30;96.10
8408;DHT22;4241;48.452;9.216;2024-02-15T14:36:46;17.30;96.70
8408;DHT22;4241;48.452;9.216;2024-02-15T14:39:13;17.30;96.60
8408;DHT22;4241;48.452;9.216;2024-02-15T14:41:40;17.30;97.30
8408;DHT22;4241;48.452;9.216;2024-02-15T14:44:10;17.30;96.70
8408;DHT22;4241;48.452;9.216;2024-02-15T14:46:38;17.30;95.20
8408;DHT22;4241;48.452;9.216;2024-02-15T14:49:05;17.20;96.90
8408;DHT22;4241;48.452;9.216;2024-02-15T14:51:34;17.30;96.10
8408;DHT22;4241;48.452;9.216;2024-02-15T14:54:02;17.20;96.20
8408;DHT22;4241;48.452;9.216;2024-02-15T14:56:29;17.20;96.30
8408;DHT22;4241;48.452;9.216;2024-02-15T14:58:57;17.20;95.10
8408;DHT22;4241;48.452;9.216;2024-02-15T15:01:27;17.20;95.50
8408;DHT22;4241;48.452;9.216;2024-02-15T15:03:55;17.20;95.20
8408;DHT22;4241;48.452;9.216;2024-02-15T15:06:24;17.20;96.30
8408;DHT22;4241;48.452;9.216;2024-02-15T15:09:09;17.20;96.40
8408;DHT22;4241;48.452;9.216;2024-02-15T15:11:54;17.10;95.60
8408;DHT22;4241;48.452;9.216;2024-02-15T15:14:38;17.00;97.20
8408;DHT22;4241;48.452;9.216;2024-02-15T15:17:07;16.90;99.90
8408;DHT22;4241;48.452;9.216;2024-02-15T15:19:36;16.80;99.90
8408;DHT22;4241;48.452;9.216;2024-02-15T15:22:03;16.70;99.20
8408;DHT22;4241;48.452;9.216;2024-02-15T15:24:30;16.60;99.00
8408;DHT22;4241;48.452;9.216;2024-02-15T15:26:58;16.60;97.00
8408;DHT22;4241;48.452;9.216;2024-02-15T15:29:26;16.60;97.30
8408;DHT22;4241;48.452;9.216;2024-02-15T15:31:53;16.60;98.00
8408;DHT22;4241;48.452;9.216;2024-02-15T15:34:21;16.60;99.50
8408;DHT22;4241;48.452;9.216;2024-02-15T15:36:48;16.50;99.90
8408;DHT22;4241;48.452;9.216;2024-02-15T15:39:15;16.50;99.90
8408;DHT22;4241;48.452;9.216;2024-02-15T15:41:43;16.50;99.90
8408;DHT22;4241;48.452;9.216;2024-02-15T15:44:10;16.40;99.90
8408;DHT22;4241;48.452;9.216;2024-02-15T15:46:37;16.30;99.90
8408;DHT22;4241;48.452;9.216;2024-02-15T15:49:05;16.10;99.90
8408;DHT22;4241;48.452;9.216;2024-02-15T15:51:33;16.00;99.90
8408;DHT22;4241;48.452;9.216;2024-02-15T15:54:00;15.90;99.90
8408;DHT22;4241;48.452;9.216;2024-02-15T15:56:27;15.80;99.90
8408;DHT22;4241;48.452;9.216;2024-02-15T15:58:54;15.70;99.90
8408;DHT22;4241;48.452;9.216;2024-02-15T16:01:23;15.70;99.90
8408;DHT22;4241;48.452;9.216;2024-02-15T16:03:50;15.60;99.90
8408;DHT22;4241;48.452;9.216;2024-02-15T16:06:17;15.50;99.90
8408;DHT22;4241;48.452;9.216;2024-02-15T16:08:45;15.50;99.90
8408;DHT22;4241;48.452;9.216;2024-02-15T16:11:13;15.50;99.90
8408;DHT22;4241;48.452;9.216;2024-02-15T16:13:42;15.40;99.90
8408;DHT22;4241;48.452;9.216;2024-02-15T16:16:11;15.30;99.90
8408;DHT22;4241;48.452;9.216;2024-02-15T16:18:39;15.10;99.90
8408;DHT22;4241;48.452;9.216;2024-02-15T16:21:07;15.00;99.90
8408;DHT22;4241;48.452;9.216;2024-02-15T16:23:34;14.90;99.90
8408;DHT22;4241;48.452;9.216;2024-02-15T16:26:03;14.80;99.90
8408;DHT22;4241;48.452;9.216;2024-02-15T16:28:31;14.60;99.90
8408;DHT22;4241;48.452;9.216;2024-02-15T16:30:58;14.50;99.90
8408;DHT22;4241;48.452;9.216;2024-02-15T16:33:25;14.30;99.90
8408;DHT22;4241;48.452;9.216;2024-02-15T16:35:51;14.20;99.90
8408;DHT22;4241;48.452;9.216;2024-02-15T16:38:19;14.10;99.90
8408;DHT22;4241;48.452;9.216;2024-02-15T16:40:45;14.00;99.90